Startpagina
METAR-TAF:

METAR-TAF

Vliegvelden :

Luchthaven Herat

Herat, Afghanistan

breedte: 34-13N, lengte: 062-13E, hoogte: 964 m

Actueel weer

Dit bericht is 1 uur en het 20 minuten geleden gemaakt, om 11:55 UTC
Wind 9 kt uit het zuidzuidwesten
Temperatuur 18°C
Vochtigheid 19%
Druk 1023 hPa
Zicht 10 km of meer
geen wolken onder 1500 m en geen cumulonimbus

METAR: OAHR 131155Z 20009KT CAVOK 18/M06 Q1023 RMK A3021 BLU

Tijdstip: 17:45 (13:15 UTC)

Verwachting

Dit bericht is 2 uur en het 15 minuten geleden gemaakt, om 11:00 UTC
Verwachting geldig van 13 om 12 UTC tot 14 om 12 UTC
Wind 11 kt uit het zuiden
Zicht 10 km of meer
geen wolken onder 1500 m en geen cumulonimbus
Wijzigt naar
van 13 om 14 UTC tot 13 om 16 UTC
Wind 3 kt uit variabele richting

TAF: OAHR 131100Z 1312/1412 19011KT CAVOK BECMG 1314/1316 VRB03KT

Waarnemingen en weersverwachtingen van meer dan 4000 vliegvelden (METAR en TAF).

De beschikbare stations zijn de gele en rode punten op de kaart.

Ga met uw muis naar het station om de naam te zien.

Klik dan om waarnemingen en weersverwachtingen te zien.

kaart wijzigen: klik op de groene knoppen met een zwart kruis om in te zoomen, op de groene knop met een streepje om uit te zoomen of op de groene pijlen voor aangrenzende kaarten.


METAR-TAF: